Time;durP1;ratioP1;P1;durP2;ratioP2;P2;SDS_P1;SDS_P2;PMS_P1;PMS_P2;Temp;Humidity;BMP_temperature;BMP_pressure;BME280_temperature;BME280_humidity;BME280_pressure;Samples;Min_cycle;Max_cycle;Signal;HPM_P1;HPM_P2
2022/10/26 00:01:20;;;;;;;10.30;7.95;;;;;;;9.66;100.00;101207.72;6240220;23;20042;-82
2022/10/26 00:03:45;;;;;;;10.45;7.80;;;;;;;9.67;100.00;101209.47;6239161;23;20008;-82
2022/10/26 00:06:13;;;;;;;14.02;8.95;;;;;;;9.68;100.00;101210.31;6240362;23;20004;-82
2022/10/26 00:08:39;;;;;;;12.75;9.27;;;;;;;9.69;100.00;101196.94;6241055;23;20042;-81
2022/10/26 00:11:04;;;;;;;13.63;9.45;;;;;;;9.76;100.00;101194.06;6212954;23;20032;-82
2022/10/26 00:13:30;;;;;;;13.40;10.05;;;;;;;9.78;100.00;101195.72;6237071;23;19996;-80
2022/10/26 00:15:55;;;;;;;19.48;10.60;;;;;;;9.79;100.00;101184.16;6211362;23;20012;-82
2022/10/26 00:18:21;;;;;;;15.73;10.68;;;;;;;9.84;100.00;101184.81;6238240;23;20082;-81
2022/10/26 00:20:47;;;;;;;12.68;9.88;;;;;;;9.84;100.00;101178.66;6238368;23;20093;-81
2022/10/26 00:23:12;;;;;;;15.13;8.70;;;;;;;9.89;100.00;101177.50;6210341;23;20004;-82
2022/10/26 00:25:37;;;;;;;12.02;8.25;;;;;;;9.91;100.00;101178.31;6241081;23;20087;-82
2022/10/26 00:28:03;;;;;;;10.93;8.35;;;;;;;9.94;100.00;101172.00;6242004;23;20012;-82
2022/10/26 00:30:28;;;;;;;11.55;7.72;;;;;;;9.96;100.00;101157.72;6215668;23;20034;-82
2022/10/26 00:32:53;;;;;;;12.68;8.75;;;;;;;9.98;100.00;101149.66;6241282;23;20015;-82
2022/10/26 00:35:19;;;;;;;9.82;8.60;;;;;;;10.00;100.00;101160.25;6215971;23;20011;-82
2022/10/26 00:37:44;;;;;;;10.93;8.13;;;;;;;10.02;100.00;101163.69;6242970;23;20012;-82
2022/10/26 00:40:10;;;;;;;14.48;9.20;;;;;;;10.05;100.00;101168.88;6215057;23;20422;-82
2022/10/26 00:42:35;;;;;;;11.05;9.00;;;;;;;10.04;100.00;101175.16;6239029;23;20008;-81
2022/10/26 00:45:06;;;;;;;13.25;8.52;;;;;;;10.06;100.00;101167.94;6239616;23;20004;-82
2022/10/26 00:47:39;;;;;;;14.85;8.57;;;;;;;10.05;100.00;101172.41;6213214;23;20377;-80
2022/10/26 00:50:14;;;;;;;12.00;8.32;;;;;;;10.06;100.00;101165.28;6213211;23;20096;-80
2022/10/26 00:52:40;;;;;;;13.57;8.57;;;;;;;10.06;100.00;101171.47;6239564;23;20039;-81
2022/10/26 00:55:06;;;;;;;12.30;9.02;;;;;;;10.05;100.00;101169.75;6211901;23;20027;-80
2022/10/26 00:57:33;;;;;;;14.48;8.63;;;;;;;10.06;100.00;101170.59;6241606;23;20430;-81
2022/10/26 00:59:58;;;;;;;15.70;9.48;;;;;;;10.06;100.00;101160.81;6236969;22;20011;-81
2022/10/26 01:02:24;;;;;;;10.57;9.52;;;;;;;10.05;100.00;101160.91;6271882;22;20011;-81
2022/10/26 01:04:51;;;;;;;14.18;8.82;;;;;;;10.00;100.00;101158.44;6272554;22;20007;-82
2022/10/26 01:07:16;;;;;;;14.27;10.60;;;;;;;10.00;100.00;101158.44;6273038;22;19999;-81
2022/10/26 01:09:42;;;;;;;15.63;10.18;;;;;;;9.98;100.00;101166.47;6289653;22;20078;-80
2022/10/26 01:12:07;;;;;;;16.02;10.27;;;;;;;9.97;100.00;101162.09;6294359;22;20004;-79
2022/10/26 01:14:33;;;;;;;12.68;10.68;;;;;;;9.96;100.00;101160.38;6285525;22;20054;-80
2022/10/26 01:17:32;;;;;;;12.70;11.13;;;;;;;9.96;100.00;101157.72;6284717;22;20146;-80
2022/10/26 01:20:00;;;;;;;16.23;11.20;;;;;;;9.98;100.00;101147.00;6280961;22;20002;-80
2022/10/26 01:22:32;;;;;;;13.75;10.20;;;;;;;9.98;100.00;101147.00;6271655;22;19999;-80
2022/10/26 01:25:26;;;;;;;15.40;11.27;;;;;;;9.96;100.00;101141.75;6269454;22;20004;-81
2022/10/26 01:27:52;;;;;;;14.05;10.52;;;;;;;9.91;100.00;101130.47;6271864;22;20011;-81
2022/10/26 01:30:39;;;;;;;13.80;10.60;;;;;;;9.92;100.00;101128.66;6270254;22;20091;-81
2022/10/26 01:33:23;;;;;;;14.50;10.05;;;;;;;9.90;100.00;101126.06;6270802;22;19996;-80
2022/10/26 01:35:52;;;;;;;14.68;10.43;;;;;;;9.83;100.00;101119.28;6270741;22;20468;-81
2022/10/26 01:38:43;;;;;;;13.90;10.15;;;;;;;9.83;100.00;101127.28;6268393;22;20422;-81
2022/10/26 01:41:20;;;;;;;10.88;9.38;;;;;;;9.82;100.00;101120.22;6270505;22;20007;-81
2022/10/26 01:43:52;;;;;;;17.08;10.23;;;;;;;9.82;100.00;101124.66;6270955;22;19999;-80
2022/10/26 01:46:22;;;;;;;12.90;8.82;;;;;;;9.78;100.00;101115.97;6270501;22;20003;-81
2022/10/26 01:48:52;;;;;;;13.52;9.38;;;;;;;9.81;100.00;101118.47;6270333;22;20004;-82
2022/10/26 01:51:18;;;;;;;9.05;8.13;;;;;;;9.84;100.00;101120.16;6267258;22;20350;-81
2022/10/26 01:53:45;;;;;;;9.95;8.02;;;;;;;9.88;100.00;101117.28;6269888;22;20084;-81
2022/10/26 01:56:22;;;;;;;19.67;8.45;;;;;;;9.87;100.00;101106.75;6271594;22;20329;-81
2022/10/26 01:59:12;;;;;;;15.48;8.05;;;;;;;9.90;100.00;101110.09;6272364;22;20011;-81
2022/10/26 02:01:46;;;;;;;10.20;7.60;;;;;;;9.91;100.00;101105.69;6268259;22;20376;-81
2022/10/26 02:04:33;;;;;;;14.13;7.55;;;;;;;9.94;100.00;101100.19;6270808;22;20011;-82
2022/10/26 02:07:30;;;;;;;10.32;7.15;;;;;;;9.95;100.00;101099.28;6271592;22;20007;-82
2022/10/26 02:10:09;;;;;;;9.90;7.00;;;;;;;9.97;100.00;101094.75;6272410;22;20084;-82
2022/10/26 02:13:00;;;;;;;11.65;7.20;;;;;;;9.98;100.00;101092.00;6271145;22;20004;-81
2022/10/26 02:15:37;;;;;;;9.52;7.10;;;;;;;9.98;100.00;101092.00;6271363;22;20311;-82
2022/10/26 02:18:12;;;;;;;11.00;6.72;;;;;;;10.01;100.00;101087.50;6273008;22;20078;-81
2022/10/26 02:20:44;;;;;;;10.18;6.50;;;;;;;10.04;100.00;101092.69;6271757;22;20333;-81
2022/10/26 02:23:11;;;;;;;9.52;6.13;;;;;;;10.01;100.00;101082.19;6269818;22;20444;-81
2022/10/26 02:25:43;;;;;;;9.48;6.22;;;;;;;10.02;100.00;101089.22;6272815;22;19999;-81
2022/10/26 02:28:12;;;;;;;9.63;5.78;;;;;;;10.01;100.00;101090.16;6270165;22;20307;-82
2022/10/26 02:30:40;;;;;;;11.43;6.40;;;;;;;9.96;100.00;101080.59;6269245;22;20022;-81
2022/10/26 02:33:08;;;;;;;9.85;6.20;;;;;;;9.97;100.00;101079.66;6268027;22;20003;-82
2022/10/26 02:35:37;;;;;;;10.50;5.65;;;;;;;9.97;100.00;101086.78;6268801;22;20428;-82
2022/10/26 02:38:06;;;;;;;11.55;5.90;;;;;;;9.91;100.00;101076.44;6270021;22;20425;-81
2022/10/26 02:40:33;;;;;;;9.70;6.10;;;;;;;9.91;100.00;101077.28;6269156;22;20083;-81
2022/10/26 02:43:04;;;;;;;8.40;6.53;;;;;;;9.89;100.00;101068.50;6268373;22;20000;-82
2022/10/26 02:45:36;;;;;;;9.95;7.20;;;;;;;9.91;100.00;101066.66;6270528;22;20325;-82
2022/10/26 02:48:01;;;;;;;10.98;6.57;;;;;;;9.91;100.00;101065.78;6271004;22;20065;-82
2022/10/26 02:50:37;;;;;;;10.90;6.72;;;;;;;9.92;100.00;101065.72;6269088;22;20402;-81
2022/10/26 02:53:16;;;;;;;9.50;6.38;;;;;;;9.92;100.00;101073.69;6269302;22;20027;-82
2022/10/26 02:55:50;;;;;;;12.20;6.25;;;;;;;9.89;100.00;101067.66;6271470;22;20000;-81
2022/10/26 02:58:27;;;;;;;9.73;6.00;;;;;;;9.85;100.00;101061.59;6270459;22;20011;-81
2022/10/26 03:00:53;;;;;;;10.75;6.22;;;;;;;9.89;100.00;101067.66;6269326;22;20463;-82
2022/10/26 03:03:18;;;;;;;10.02;6.45;;;;;;;9.87;100.00;101057.09;6271111;22;20004;-82
2022/10/26 03:05:44;;;;;;;9.95;6.28;;;;;;;9.92;100.00;101063.06;6269914;22;20460;-82
2022/10/26 03:08:09;;;;;;;8.40;6.30;;;;;;;9.94;100.00;101062.97;6271514;22;20337;-82
2022/10/26 03:10:42;;;;;;;10.80;6.25;;;;;;;9.96;100.00;101072.63;6268855;22;20053;-82
2022/10/26 03:13:09;;;;;;;11.00;6.32;;;;;;;10.01;100.00;101071.56;6271062;22;20076;-82
2022/10/26 03:15:34;;;;;;;10.27;6.22;;;;;;;10.02;100.00;101062.63;6269416;22;19999;-82
2022/10/26 03:18:00;;;;;;;8.00;5.25;;;;;;;10.02;100.00;101065.28;6270242;22;20149;-81
2022/10/26 03:20:25;;;;;;;7.28;5.68;;;;;;;10.02;100.00;101058.19;6267566;22;20015;-81
2022/10/26 03:22:51;;;;;;;12.13;6.07;;;;;;;10.02;100.00;101057.31;6267179;22;20014;-81
2022/10/26 03:25:16;;;;;;;14.40;6.30;;;;;;;9.97;100.00;101054.88;6269317;22;20007;-82
2022/10/26 03:27:42;;;;;;;9.00;6.10;;;;;;;10.05;100.00;101073.16;6269553;22;20004;-81
2022/10/26 03:30:08;;;;;;;10.02;5.97;;;;;;;10.05;100.00;101068.69;6268659;22;20053;-81
2022/10/26 03:32:33;;;;;;;9.35;6.18;;;;;;;10.02;100.00;101060.84;6267805;22;20077;-81
2022/10/26 03:34:59;;;;;;;8.77;5.57;;;;;;;10.06;100.00;101064.22;6268644;22;20000;-80
2022/10/26 03:37:24;;;;;;;11.07;5.93;;;;;;;10.04;100.00;101059.00;6269400;22;20412;-80
2022/10/26 03:39:49;;;;;;;10.55;5.47;;;;;;;10.02;100.00;101059.97;6269607;22;20378;-80
2022/10/26 03:42:15;;;;;;;11.48;5.75;;;;;;;10.00;100.00;101059.19;6268490;22;20006;-81
2022/10/26 03:44:40;;;;;;;7.47;5.53;;;;;;;9.95;100.00;101065.59;6270539;22;20004;-81
2022/10/26 03:47:05;;;;;;;10.70;5.97;;;;;;;9.92;100.00;101062.19;6272750;22;20006;-81
2022/10/26 03:49:30;;;;;;;9.13;5.20;;;;;;;9.90;100.00;101058.72;6273019;22;20087;-81
2022/10/26 03:51:56;;;;;;;10.75;5.60;;;;;;;9.87;100.00;101061.53;6273890;22;20011;-81
2022/10/26 03:54:21;;;;;;;9.27;5.65;;;;;;;9.86;100.00;101059.78;6283280;22;20069;-81
2022/10/26 03:56:46;;;;;;;9.77;5.70;;;;;;;9.83;100.00;101057.28;6284238;22;20019;-82
2022/10/26 03:59:11;;;;;;;7.75;5.65;;;;;;;9.81;100.00;101057.34;6285377;22;20004;-80
2022/10/26 04:01:37;;;;;;;10.15;5.28;;;;;;;9.77;100.00;101052.22;6284948;22;20015;-81
2022/10/26 04:04:03;;;;;;;12.93;5.85;;;;;;;9.77;100.00;101041.59;6274637;22;20018;-81
2022/10/26 04:06:28;;;;;;;6.75;5.28;;;;;;;9.77;100.00;101050.44;6275575;22;20018;-81
2022/10/26 04:08:57;;;;;;;7.15;5.25;;;;;;;9.76;100.00;101050.50;6275070;22;20003;-80
2022/10/26 04:11:22;;;;;;;11.48;5.20;;;;;;;9.81;100.00;101048.50;6274344;22;20007;-81
2022/10/26 04:13:47;;;;;;;8.38;5.18;;;;;;;9.84;100.00;101054.56;6275968;22;20014;-80
2022/10/26 04:16:13;;;;;;;8.95;5.30;;;;;;;9.85;100.00;101045.63;6274623;22;20018;-80
2022/10/26 04:18:38;;;;;;;7.53;5.15;;;;;;;9.90;100.00;101043.63;6274417;22;20014;-80
2022/10/26 04:21:03;;;;;;;9.60;5.60;;;;;;;9.93;100.00;101043.50;6272950;22;20065;-81
2022/10/26 04:23:29;;;;;;;8.45;4.95;;;;;;;9.92;100.00;101047.09;6274780;22;20418;-80
2022/10/26 04:25:54;;;;;;;9.23;5.35;;;;;;;10.00;100.00;101043.25;6273385;22;20007;-81
2022/10/26 04:28:19;;;;;;;8.73;5.40;;;;;;;10.04;100.00;101052.81;6273595;22;20452;-81
2022/10/26 04:30:46;;;;;;;14.63;5.85;;;;;;;10.06;100.00;101046.47;6274067;22;19999;-81
2022/10/26 04:33:11;;;;;;;8.65;4.97;;;;;;;10.12;100.00;101050.66;6275097;22;20006;-81
2022/10/26 04:35:37;;;;;;;7.43;4.72;;;;;;;10.06;100.00;101032.31;6273704;22;20003;-81
2022/10/26 04:38:05;;;;;;;10.40;5.47;;;;;;;10.17;100.00;101046.00;6273713;22;20683;-81
2022/10/26 04:40:32;;;;;;;8.38;5.25;;;;;;;10.20;100.00;101041.41;6272668;22;20022;-80
2022/10/26 04:42:57;;;;;;;10.02;4.60;;;;;;;10.20;100.00;101029.91;6272492;22;20433;-80
2022/10/26 04:45:23;;;;;;;6.88;4.90;;;;;;;10.24;100.00;101042.09;6272763;22;20008;-83
2022/10/26 04:48:09;;;;;;;9.95;4.80;;;;;;;10.28;100.00;101049.03;6271626;22;20090;-81
2022/10/26 04:50:36;;;;;;;10.00;5.60;;;;;;;10.26;100.00;101034.97;6271916;22;20083;-82
2022/10/26 04:53:01;;;;;;;7.53;4.60;;;;;;;10.27;100.00;101036.66;6272081;22;20006;-81
2022/10/26 04:55:26;;;;;;;6.70;4.65;;;;;;;10.31;100.00;101038.25;6272912;22;20358;-80
2022/10/26 04:57:52;;;;;;;6.72;4.43;;;;;;;10.31;100.00;101042.72;6271661;22;20326;-81
2022/10/26 05:00:17;;;;;;;8.82;4.93;;;;;;;10.37;100.00;101048.63;6270719;22;20008;-82
2022/10/26 05:02:43;;;;;;;8.45;4.78;;;;;;;10.40;100.00;101043.16;6272396;22;20078;-81
2022/10/26 05:05:08;;;;;;;8.07;4.68;;;;;;;10.43;100.00;101047.47;6271092;22;20010;-80
2022/10/26 05:07:33;;;;;;;11.50;5.25;;;;;;;10.44;100.00;101042.06;6273077;22;20546;-82
2022/10/26 05:09:59;;;;;;;8.27;5.05;;;;;;;10.47;100.00;101044.59;6271313;22;20014;-81
2022/10/26 05:12:24;;;;;;;8.98;4.93;;;;;;;10.46;100.00;101042.88;6269808;22;20326;-81
2022/10/26 05:14:49;;;;;;;6.72;4.72;;;;;;;10.50;100.00;101048.06;6270395;22;20325;-81
2022/10/26 05:17:14;;;;;;;7.35;5.15;;;;;;;10.48;100.00;101040.97;6270558;22;20039;-80
2022/10/26 05:19:40;;;;;;;8.77;5.07;;;;;;;10.52;100.00;101054.16;6270746;22;20030;-81
2022/10/26 05:22:05;;;;;;;7.80;4.88;;;;;;;10.52;100.00;101047.03;6267871;22;19999;-81
2022/10/26 05:24:30;;;;;;;9.70;5.00;;;;;;;10.54;100.00;101055.81;6271133;22;20015;-81
2022/10/26 05:26:56;;;;;;;9.82;5.45;;;;;;;10.54;100.00;101055.81;6272453;22;20003;-81
2022/10/26 05:29:21;;;;;;;7.88;5.22;;;;;;;10.52;100.00;101051.50;6271983;22;20137;-81
2022/10/26 05:31:46;;;;;;;7.50;5.28;;;;;;;10.56;100.00;101053.06;6271257;22;20010;-82
2022/10/26 05:34:11;;;;;;;10.25;5.28;;;;;;;10.55;100.00;101046.91;6266107;22;20011;-83
2022/10/26 05:36:37;;;;;;;12.32;5.50;;;;;;;10.55;100.00;101054.88;6270941;22;20078;-81
2022/10/26 05:39:02;;;;;;;7.20;5.30;;;;;;;10.55;100.00;101062.00;6271068;22;20014;-81
2022/10/26 05:41:28;;;;;;;11.40;5.20;;;;;;;10.51;100.00;101050.63;6270712;22;20004;-82
2022/10/26 05:43:53;;;;;;;10.65;5.38;;;;;;;10.56;100.00;101053.06;6270171;22;20035;-81
2022/10/26 05:46:18;;;;;;;10.60;5.32;;;;;;;10.56;100.00;101055.75;6271413;22;20010;-82
2022/10/26 05:48:43;;;;;;;8.68;5.40;;;;;;;10.56;100.00;101059.25;6272094;22;20042;-81
2022/10/26 05:51:11;;;;;;;8.95;5.10;;;;;;;10.58;100.00;101061.88;6271059;22;20008;-81
2022/10/26 05:53:36;;;;;;;11.38;5.65;;;;;;;10.56;100.00;101053.06;6271457;22;20079;-80
2022/10/26 05:56:02;;;;;;;9.00;5.20;;;;;;;10.58;100.00;101062.72;6268422;22;20026;-81
2022/10/26 05:58:27;;;;;;;11.38;5.20;;;;;;;10.57;100.00;101058.31;6268885;22;20007;-81
2022/10/26 06:00:59;;;;;;;10.13;5.53;;;;;;;10.59;100.00;101071.56;6267836;22;20467;-81
2022/10/26 06:03:51;;;;;;;10.38;5.50;;;;;;;10.54;100.00;101071.78;6267184;22;20004;-81
2022/10/26 06:06:17;;;;;;;12.07;5.38;;;;;;;10.56;100.00;101074.38;6268318;22;20027;-81
2022/10/26 06:08:43;;;;;;;7.78;5.40;;;;;;;10.52;100.00;101078.09;6271724;22;20346;-82
2022/10/26 06:11:08;;;;;;;9.90;5.15;;;;;;;10.46;100.00;101081.94;6270018;22;20369;-81
2022/10/26 06:13:34;;;;;;;8.00;5.32;;;;;;;10.44;100.00;101084.63;6268478;22;20011;-81
2022/10/26 06:16:27;;;;;;;9.05;6.10;;;;;;;10.41;100.00;101087.47;6268605;22;20367;-81
2022/10/26 06:19:15;;;;;;;10.10;5.85;;;;;;;10.32;100.00;101093.19;6271473;22;20007;-81
2022/10/26 06:22:07;;;;;;;7.85;5.40;;;;;;;10.32;100.00;101090.53;6271417;22;20011;-81
2022/10/26 06:24:45;;;;;;;9.32;5.80;;;;;;;10.30;100.00;101094.22;6270846;22;20053;-81
2022/10/26 06:27:33;;;;;;;11.02;6.38;;;;;;;10.34;100.00;101087.81;6267076;22;20015;-82
2022/10/26 06:30:09;;;;;;;15.85;7.60;;;;;;;10.39;100.00;101091.97;6271706;22;20004;-81
2022/10/26 06:32:34;;;;;;;12.50;6.53;;;;;;;10.42;100.00;101088.31;6273585;22;20007;-81
2022/10/26 06:35:23;;;;;;;9.57;6.13;;;;;;;10.49;100.00;101084.41;6273950;22;20092;-82
2022/10/26 06:37:50;;;;;;;13.85;6.85;;;;;;;10.55;100.00;101088.63;6285604;22;20023;-82
2022/10/26 06:40:16;;;;;;;10.45;6.00;;;;;;;10.53;100.00;101085.16;6289579;22;20007;-84
2022/10/26 06:42:42;;;;;;;11.35;5.93;;;;;;;10.61;100.00;101083.00;6291867;22;20087;-82
2022/10/26 06:45:13;;;;;;;10.13;5.97;;;;;;;10.64;100.00;101077.53;6285714;22;20011;-82
2022/10/26 06:47:48;;;;;;;8.93;6.07;;;;;;;10.68;100.00;101069.31;6270988;22;20008;-82
2022/10/26 06:50:32;;;;;;;9.93;5.50;;;;;;;10.72;100.00;101070.03;6267700;22;20011;-82
2022/10/26 06:53:24;;;;;;;7.07;4.97;;;;;;;10.75;100.00;101075.22;6269905;22;20011;-82
2022/10/26 06:55:50;;;;;;;7.10;5.28;;;;;;;10.83;100.00;101074.88;6249373;22;20008;-81
2022/10/26 06:58:21;;;;;;;7.47;5.53;;;;;;;10.86;100.00;101067.56;6271867;22;20014;-81
2022/10/26 07:00:52;;;;;;;6.78;5.43;;;;;;;10.92;100.00;101069.94;6271542;22;20050;-82
2022/10/26 07:03:17;;;;;;;8.57;5.70;;;;;;;10.92;100.00;101074.41;6272666;22;20009;-82
2022/10/26 07:05:43;;;;;;;7.45;5.38;;;;;;;10.91;100.00;101070.91;6269164;22;20010;-81
2022/10/26 07:08:09;;;;;;;9.98;5.93;;;;;;;10.84;100.00;101066.78;6270999;22;20011;-81
2022/10/26 07:10:37;;;;;;;9.43;5.50;;;;;;;10.77;100.00;101067.16;6269519;22;20046;-82
2022/10/26 07:13:03;;;;;;;7.15;5.35;;;;;;;10.68;100.00;101066.66;6272333;22;20010;-81
2022/10/26 07:15:28;;;;;;;8.45;5.47;;;;;;;10.68;100.00;101092.44;6273768;22;20078;-81
2022/10/26 07:17:53;;;;;;;9.23;5.60;;;;;;;10.60;100.00;101091.91;6271875;22;20086;-81
2022/10/26 07:20:20;;;;;;;11.65;7.50;;;;;;;10.57;100.00;101097.38;6268411;22;20000;-82
2022/10/26 07:22:51;;;;;;;12.85;8.05;;;;;;;10.53;100.00;101106.44;6270757;22;20456;-82
2022/10/26 07:25:17;;;;;;;13.93;7.32;;;;;;;10.51;100.00;101105.66;6270880;22;20000;-82
2022/10/26 07:27:42;;;;;;;9.07;6.35;;;;;;;10.50;100.00;101101.28;6269801;22;20012;-82
2022/10/26 07:30:08;;;;;;;11.82;6.28;;;;;;;10.44;100.00;101107.72;6269476;22;20137;-82
2022/10/26 07:32:33;;;;;;;9.38;7.03;;;;;;;10.47;100.00;101112.91;6270963;22;20008;-82
2022/10/26 07:34:58;;;;;;;10.80;6.78;;;;;;;10.54;100.00;101113.50;6270541;22;19996;-82
2022/10/26 07:37:24;;;;;;;11.07;6.18;;;;;;;10.55;100.00;101112.56;6270122;22;20010;-82
2022/10/26 07:39:49;;;;;;;12.02;6.35;;;;;;;10.62;100.00;101114.03;6270573;22;20034;-82
2022/10/26 07:42:15;;;;;;;9.63;6.45;;;;;;;10.69;100.00;101118.09;6271741;22;20035;-82
2022/10/26 07:44:40;;;;;;;18.80;6.78;;;;;;;10.75;100.00;101138.28;6267303;22;20004;-81
2022/10/26 07:47:05;;;;;;;16.35;6.68;;;;;;;10.80;100.00;101131.78;6270235;22;20008;-81
2022/10/26 07:49:30;;;;;;;8.65;6.30;;;;;;;10.90;100.00;101137.53;6267750;22;20543;-80
2022/10/26 07:51:56;;;;;;;9.98;6.18;;;;;;;10.89;100.00;101143.78;6271323;22;20006;-82
2022/10/26 07:54:21;;;;;;;8.98;5.68;;;;;;;11.00;100.00;101161.94;6271604;22;19995;-83
2022/10/26 07:56:49;;;;;;;8.40;5.75;;;;;;;11.21;100.00;101167.09;6271845;22;19999;-82
2022/10/26 07:59:15;;;;;;;9.75;6.22;;;;;;;11.26;100.00;101152.69;6268067;22;20459;-82
2022/10/26 08:01:41;;;;;;;11.10;6.43;;;;;;;11.27;100.00;101141.09;6270994;22;20137;-82
2022/10/26 08:04:06;;;;;;;8.98;5.88;;;;;;;11.32;100.00;101155.03;6268988;22;20057;-82
2022/10/26 08:06:31;;;;;;;9.50;6.10;;;;;;;11.37;100.00;101148.56;6271867;22;20004;-81
2022/10/26 08:08:57;;;;;;;10.52;5.85;;;;;;;11.40;100.00;101159.06;6270011;22;20651;-82
2022/10/26 08:11:22;;;;;;;9.13;5.82;;;;;;;11.44;100.00;101163.28;6271535;22;20486;-82
2022/10/26 08:13:52;;;;;;;8.20;5.45;;;;;;;11.53;100.00;101169.97;6271215;22;20004;-82
2022/10/26 08:16:17;;;;;;;8.00;5.78;;;;;;;11.62;100.00;101176.66;6270479;22;20090;-81
2022/10/26 08:18:42;;;;;;;8.38;5.82;;;;;;;11.65;100.00;101173.84;6269631;22;20469;-81
2022/10/26 08:21:10;;;;;;;8.77;5.22;;;;;;;11.81;100.00;101173.94;6269937;22;20003;-82
2022/10/26 08:23:36;;;;;;;8.98;5.15;;;;;;;12.01;100.00;101170.28;6271982;22;20000;-81
2022/10/26 08:26:02;;;;;;;7.60;5.07;;;;;;;12.20;100.00;101171.91;6271653;22;20026;-81
2022/10/26 08:28:28;;;;;;;6.70;4.75;;;;;;;12.27;100.00;101177.78;6269000;22;20075;-81
2022/10/26 08:30:54;;;;;;;6.97;4.60;;;;;;;12.30;100.00;101177.63;6271558;22;20007;-82
2022/10/26 08:33:19;;;;;;;8.65;5.55;;;;;;;12.35;100.00;101170.25;6272776;22;20083;-81
2022/10/26 08:35:45;;;;;;;11.93;6.82;;;;;;;12.46;100.00;101162.53;6270381;22;20086;-82
2022/10/26 08:38:10;;;;;;;9.73;4.72;;;;;;;12.63;100.00;101182.97;6269182;22;20026;-81
2022/10/26 08:40:40;;;;;;;10.55;5.65;;;;;;;12.77;100.00;101184.03;6270472;22;20099;-82
2022/10/26 08:43:38;;;;;;;7.93;4.65;;;;;;;12.84;100.00;101185.44;6273042;22;20090;-82
2022/10/26 08:46:18;;;;;;;7.90;4.13;;;;;;;12.98;100.00;101188.19;6269933;22;20004;-81
2022/10/26 08:48:49;;;;;;;6.25;3.55;;;;;;;13.12;100.00;101190.94;6271748;22;20069;-82
2022/10/26 08:51:23;;;;;;;6.60;3.53;;;;;;;13.20;100.00;101186.03;6271923;22;20033;-82
2022/10/26 08:53:55;;;;;;;8.13;3.65;;;;;;;13.28;100.00;101190.13;6271132;22;20003;-83
2022/10/26 08:56:25;;;;;;;5.10;3.30;;;;;;;13.40;100.00;101190.28;6270629;22;20011;-81
2022/10/26 08:59:09;;;;;;;10.00;3.92;;;;;;;13.42;100.00;101177.72;6271940;22;20121;-83
2022/10/26 09:01:35;;;;;;;7.90;3.63;;;;;;;13.55;100.00;101172.53;6240413;23;20023;-82
2022/10/26 09:04:02;;;;;;;6.38;3.70;;;;;;;13.62;100.00;101168.50;6240541;23;20016;-82
2022/10/26 09:07:01;;;;;;;6.05;3.70;;;;;;;13.74;100.00;101169.63;6240570;23;20434;-82
2022/10/26 09:09:43;;;;;;;6.93;3.78;;;;;;;13.89;100.00;101183.91;6237712;23;20000;-83
2022/10/26 09:12:45;;;;;;;6.18;3.17;;;;;;;14.00;100.00;101185.94;6238684;23;20024;-79
2022/10/26 09:15:15;;;;;;;5.30;3.40;;;;;;;14.11;100.00;101179.00;6239740;23;20004;-81
2022/10/26 09:18:15;;;;;;;6.40;3.30;;;;;;;14.16;100.00;101182.25;6213224;23;20011;-80
2022/10/26 09:21:05;;;;;;;6.68;3.22;;;;;;;14.32;100.00;101190.22;6239905;23;20066;-81
2022/10/26 09:23:58;;;;;;;6.15;3.05;;;;;;;14.45;100.00;101196.53;6243339;23;20087;-80
2022/10/26 09:26:32;;;;;;;6.07;3.10;;;;;;;14.55;99.82;101196.88;6250604;23;20287;-81
2022/10/26 09:29:02;;;;;;;7.80;3.30;;;;;;;14.62;98.80;101210.75;6249320;23;20015;-81
2022/10/26 09:31:31;;;;;;;6.78;3.25;;;;;;;14.76;98.24;101216.13;6257177;23;20024;-81
2022/10/26 09:34:01;;;;;;;8.40;3.50;;;;;;;14.82;97.46;101221.09;6252144;23;20016;-80
2022/10/26 09:36:26;;;;;;;6.30;3.20;;;;;;;14.91;97.18;101231.22;6253792;23;20008;-81
2022/10/26 09:38:56;;;;;;;7.50;3.35;;;;;;;15.04;96.85;101241.16;6258650;23;19995;-81
2022/10/26 09:41:30;;;;;;;6.90;3.67;;;;;;;15.14;96.32;101253.91;6240937;23;20359;-81
2022/10/26 09:44:17;;;;;;;8.93;3.50;;;;;;;15.30;96.70;101258.28;6241901;23;20070;-80
2022/10/26 09:47:09;;;;;;;9.32;3.90;;;;;;;15.52;95.96;101252.41;6238412;23;20008;-81
2022/10/26 09:49:43;;;;;;;4.60;3.10;;;;;;;15.77;93.14;101257.06;6242165;23;20003;-82
2022/10/26 09:52:09;;;;;;;8.68;3.60;;;;;;;15.84;92.16;101251.19;6244236;23;20042;-81
2022/10/26 09:54:34;;;;;;;7.70;3.50;;;;;;;15.98;90.92;101252.09;6243637;23;20000;-81
2022/10/26 09:57:01;;;;;;;7.45;3.45;;;;;;;15.92;90.78;101250.66;6240093;23;20334;-83
2022/10/26 09:59:29;;;;;;;6.78;3.40;;;;;;;15.89;91.13;101246.38;6244201;22;20007;-82
2022/10/26 10:01:54;;;;;;;8.40;3.20;;;;;;;15.92;91.65;101250.66;6270757;22;20043;-80
2022/10/26 10:04:22;;;;;;;7.88;3.10;;;;;;;15.98;91.57;101268.19;6270581;22;20090;-81
2022/10/26 10:06:49;;;;;;;9.18;3.30;;;;;;;15.98;91.55;101271.75;6269913;22;20445;-80
2022/10/26 10:09:18;;;;;;;6.70;3.17;;;;;;;16.02;91.46;101278.63;6268200;22;20035;-80
2022/10/26 10:11:53;;;;;;;9.65;3.13;;;;;;;16.00;90.57;101280.53;6271045;22;20567;-80
2022/10/26 10:14:21;;;;;;;8.55;3.58;;;;;;;16.03;91.21;101276.81;6269236;22;20010;-79
2022/10/26 10:16:59;;;;;;;6.57;2.95;;;;;;;16.07;91.25;101289.91;6268950;22;20007;-80
2022/10/26 10:19:29;;;;;;;8.15;4.22;;;;;;;16.05;91.24;101290.97;6266293;22;20012;-80
2022/10/26 10:22:00;;;;;;;6.47;2.70;;;;;;;16.12;90.30;101294.97;6269911;22;19999;-79
2022/10/26 10:24:31;;;;;;;7.63;2.97;;;;;;;16.21;90.54;101307.78;6268893;22;20004;-81
2022/10/26 10:27:04;;;;;;;6.15;2.78;;;;;;;16.29;90.70;101313.50;6269525;22;20042;-80
2022/10/26 10:29:33;;;;;;;5.70;2.90;;;;;;;16.31;90.04;101298.16;6268110;22;20082;-81
2022/10/26 10:32:01;;;;;;;6.45;2.35;;;;;;;16.44;90.67;101311.63;6268688;22;20299;-80
2022/10/26 10:34:30;;;;;;;7.20;2.97;;;;;;;16.53;90.36;101324.41;6268386;22;20022;-80
2022/10/26 10:36:55;;;;;;;4.20;2.72;;;;;;;16.55;89.87;101318.94;6267619;22;20057;-80
2022/10/26 10:39:33;;;;;;;6.32;2.47;;;;;;;16.62;90.12;101323.78;6268431;22;20007;-81
2022/10/26 10:41:59;;;;;;;5.65;2.83;;;;;;;16.61;89.26;101326.59;6268413;22;20007;-81
2022/10/26 10:44:30;;;;;;;7.03;3.22;;;;;;;16.65;88.95;101336.16;6266566;22;20101;-80
2022/10/26 10:47:06;;;;;;;6.32;2.90;;;;;;;16.73;89.93;101336.53;6269354;22;20075;-79
2022/10/26 10:49:32;;;;;;;6.45;2.80;;;;;;;16.81;88.12;101330.63;6268986;22;20004;-81
2022/10/26 10:51:59;;;;;;;6.75;2.75;;;;;;;16.89;87.49;101342.56;6270658;22;20057;-81
2022/10/26 10:54:37;;;;;;;9.48;3.00;;;;;;;17.06;87.94;101333.31;6269102;22;20085;-80
2022/10/26 10:57:17;;;;;;;5.80;2.58;;;;;;;17.11;86.28;101341.06;6269107;22;20007;-80
2022/10/26 11:00:08;;;;;;;4.25;2.40;;;;;;;17.13;88.13;101342.66;6268048;22;20456;-80
2022/10/26 11:03:12;;;;;;;6.40;2.55;;;;;;;17.16;87.08;101342.44;6258826;22;20353;-79
2022/10/26 11:05:47;;;;;;;5.05;2.70;;;;;;;17.24;86.70;101343.75;6270046;22;20496;-80
2022/10/26 11:08:25;;;;;;;6.35;2.58;;;;;;;17.42;86.35;101362.13;6268505;22;20023;-81
2022/10/26 11:10:59;;;;;;;5.75;2.30;;;;;;;17.71;84.40;101352.94;6269116;22;20034;-80
2022/10/26 11:13:45;;;;;;;6.50;2.60;;;;;;;18.13;84.83;101368.66;6269297;22;20006;-81
2022/10/26 11:16:15;;;;;;;3.28;2.28;;;;;;;18.15;81.58;101361.31;6267288;22;20090;-80
2022/10/26 11:19:25;;;;;;;4.68;2.38;;;;;;;18.14;82.96;101358.72;6268516;22;19999;-81
2022/10/26 11:21:53;;;;;;;7.68;2.10;;;;;;;18.10;81.56;101363.50;6243954;22;20087;-81
2022/10/26 11:24:30;;;;;;;5.82;2.20;;;;;;;18.30;81.39;101374.59;6268053;22;20082;-81
2022/10/26 11:27:04;;;;;;;5.15;2.10;;;;;;;18.67;79.34;101378.94;6269055;22;20000;-81
2022/10/26 11:29:51;;;;;;;3.80;2.10;;;;;;;18.87;79.11;101382.84;6268570;22;20011;-81
2022/10/26 11:32:26;;;;;;;5.63;2.35;;;;;;;18.54;79.20;101382.69;6267508;22;20007;-80